Time;durP1;ratioP1;P1;durP2;ratioP2;P2;SDS_P1;SDS_P2;PMS_P1;PMS_P2;Temp;Humidity;BMP_temperature;BMP_pressure;BME280_temperature;BME280_humidity;BME280_pressure;Samples;Min_cycle;Max_cycle;Signal;HPM_P1;HPM_P2
2023/07/23 04:01:05;;;;;;;1999.90;999.90;;;;;;;;;;5824924;23;20248;-72
2023/07/23 04:03:50;;;;;;;1999.90;999.90;;;;;;;;;;4956038;29;20280;-73
2023/07/23 04:06:35;;;;;;;1999.90;999.90;;;;;;;;;;4956598;28;20797;-73
2023/07/23 04:09:20;;;;;;;1999.90;999.90;;;;;;;;;;4959279;28;20236;-72
2023/07/23 04:12:06;;;;;;;1999.90;999.90;;;;;;;;;;4957894;28;20387;-73
2023/07/23 04:14:51;;;;;;;1999.90;999.90;;;;;;;;;;4955539;28;20272;-72
2023/07/23 04:17:37;;;;;;;1999.90;999.90;;;;;;;;;;4963371;28;20228;-72
2023/07/23 04:20:22;;;;;;;1999.90;999.90;;;;;;;;;;4962347;28;20295;-73
2023/07/23 04:23:07;;;;;;;1999.90;999.90;;;;;;;;;;4937082;29;20283;-73
2023/07/23 04:25:52;;;;;;;1999.90;999.90;;;;;;;;;;4956090;28;20576;-74
2023/07/23 04:28:36;;;;;;;1999.90;999.90;;;;;;;;;;4955013;29;20205;-72
2023/07/23 04:31:21;;;;;;;1999.90;999.90;;;;;;;;;;4963605;28;20233;-72
2023/07/23 04:34:08;;;;;;;1999.90;999.90;;;;;;;;;;4954891;29;20581;-73
2023/07/23 04:36:52;;;;;;;1999.90;999.90;;;;;;;;;;4959349;28;20304;-73
2023/07/23 04:39:37;;;;;;;1999.90;999.90;;;;;;;;;;4961409;28;20212;-72
2023/07/23 04:42:22;;;;;;;1999.90;999.90;;;;;;;;;;4959488;28;20232;-73
2023/07/23 04:45:08;;;;;;;1999.90;999.90;;;;;;;;;;4957905;28;20336;-71
2023/07/23 04:47:53;;;;;;;1999.90;999.90;;;;;;;;;;4955255;28;20782;-73
2023/07/23 04:50:39;;;;;;;1999.90;999.90;;;;;;;;;;4955095;28;20208;-70
2023/07/23 04:53:24;;;;;;;1999.90;999.90;;;;;;;;;;4957017;28;20220;-72
2023/07/23 04:56:09;;;;;;;1999.90;999.90;;;;;;;;;;4955312;28;20228;-72
2023/07/23 04:58:54;;;;;;;1999.90;999.90;;;;;;;;;;4954973;28;20222;-72
2023/07/23 05:01:39;;;;;;;1999.90;999.90;;;;;;;;;;4954822;28;20251;-72
2023/07/23 05:04:24;;;;;;;1999.90;999.90;;;;;;;;;;4955051;28;20217;-72
2023/07/23 05:07:10;;;;;;;1999.90;999.90;;;;;;;;;;4954978;28;20406;-72
2023/07/23 05:09:55;;;;;;;1999.90;999.90;;;;;;;;;;4954764;28;20214;-73
2023/07/23 05:12:40;;;;;;;1999.90;999.90;;;;;;;;;;4956859;28;20244;-72
2023/07/23 05:15:25;;;;;;;1999.90;999.90;;;;;;;;;;4951468;28;20748;-72
2023/07/23 05:18:10;;;;;;;1999.90;999.90;;;;;;;;;;4956639;28;20251;-72
2023/07/23 05:20:55;;;;;;;1999.90;999.90;;;;;;;;;;4954461;28;20228;-72
2023/07/23 05:23:43;;;;;;;1999.90;999.90;;;;;;;;;;4958379;28;20215;-72
2023/07/23 05:26:28;;;;;;;1999.90;999.90;;;;;;;;;;4966499;28;20209;-73
2023/07/23 05:29:13;;;;;;;1999.90;999.90;;;;;;;;;;4953524;28;20761;-73
2023/07/23 05:31:58;;;;;;;1999.90;999.90;;;;;;;;;;4953024;28;20235;-72
2023/07/23 05:34:43;;;;;;;1999.90;999.90;;;;;;;;;;4951116;28;20209;-72
2023/07/23 05:37:28;;;;;;;1999.90;999.90;;;;;;;;;;4953894;28;20208;-70
2023/07/23 05:40:14;;;;;;;1999.90;999.90;;;;;;;;;;4951272;28;20252;-72
2023/07/23 05:43:00;;;;;;;1999.90;999.90;;;;;;;;;;4955851;28;20283;-72
2023/07/23 05:45:45;;;;;;;1999.90;999.90;;;;;;;;;;4955253;28;20213;-73
2023/07/23 05:48:30;;;;;;;1999.90;999.90;;;;;;;;;;4965240;28;20283;-73
2023/07/23 05:51:15;;;;;;;1999.90;999.90;;;;;;;;;;4973519;28;20582;-75
2023/07/23 05:54:00;;;;;;;1999.90;999.90;;;;;;;;;;4953539;28;20675;-71
2023/07/23 05:56:46;;;;;;;1999.90;999.90;;;;;;;;;;4951735;28;20333;-74
2023/07/23 05:59:31;;;;;;;1999.90;999.90;;;;;;;;;;4952981;28;20595;-72
2023/07/23 06:02:16;;;;;;;1999.90;999.90;;;;;;;;;;4948035;28;20250;-70
2023/07/23 06:05:01;;;;;;;1999.90;999.90;;;;;;;;;;4952941;28;20473;-74
2023/07/23 06:07:46;;;;;;;1999.90;999.90;;;;;;;;;;4955384;28;20233;-71
2023/07/23 06:10:32;;;;;;;1999.90;999.90;;;;;;;;;;4950417;28;20209;-69
2023/07/23 06:13:19;;;;;;;1999.90;999.90;;;;;;;;;;4948409;28;20299;-69
2023/07/23 06:16:04;;;;;;;1999.90;999.90;;;;;;;;;;4953404;28;20280;-72
2023/07/23 06:18:49;;;;;;;1999.90;999.90;;;;;;;;;;4957032;28;20599;-70
2023/07/23 06:21:34;;;;;;;1999.90;999.90;;;;;;;;;;4953356;28;20284;-72
2023/07/23 06:24:19;;;;;;;1999.90;999.90;;;;;;;;;;4953327;28;20336;-72
2023/07/23 06:27:05;;;;;;;1999.90;999.90;;;;;;;;;;4950381;28;20264;-69
2023/07/23 06:29:51;;;;;;;1999.90;999.90;;;;;;;;;;4953852;28;20573;-72
2023/07/23 06:32:36;;;;;;;1999.90;999.90;;;;;;;;;;4952057;28;20347;-71
2023/07/23 06:35:22;;;;;;;1999.90;999.90;;;;;;;;;;4957852;28;20591;-70
2023/07/23 06:38:07;;;;;;;1999.90;999.90;;;;;;;;;;4951307;28;20728;-72
2023/07/23 06:40:52;;;;;;;1999.90;999.90;;;;;;;;;;4951143;28;20469;-72
2023/07/23 06:43:37;;;;;;;1999.90;999.90;;;;;;;;;;4953400;28;20219;-76
2023/07/23 06:46:23;;;;;;;1999.90;999.90;;;;;;;;;;4949888;28;20329;-75
2023/07/23 06:49:08;;;;;;;1999.90;999.90;;;;;;;;;;4952830;28;20209;-77
2023/07/23 06:51:53;;;;;;;1999.90;999.90;;;;;;;;;;4955071;28;20232;-77
2023/07/23 06:54:42;;;;;;;1999.90;999.90;;;;;;;;;;4954818;28;20523;-76
2023/07/23 06:57:27;;;;;;;1999.90;999.90;;;;;;;;;;4952841;28;20349;-77
2023/07/23 07:00:13;;;;;;;1999.90;999.90;;;;;;;;;;4951537;28;20429;-75
2023/07/23 07:02:59;;;;;;;1999.90;999.90;;;;;;;;;;4955578;28;20219;-76
2023/07/23 07:05:44;;;;;;;1999.90;999.90;;;;;;;;;;4960214;28;20212;-76
2023/07/23 07:08:29;;;;;;;1999.90;999.90;;;;;;;;;;4957008;28;20280;-75
2023/07/23 07:11:14;;;;;;;1999.90;999.90;;;;;;;;;;4957491;28;20284;-77
2023/07/23 07:13:59;;;;;;;1999.90;999.90;;;;;;;;;;4956781;28;20267;-76
2023/07/23 07:16:44;;;;;;;1999.90;999.90;;;;;;;;;;4955013;28;20215;-75
2023/07/23 07:19:30;;;;;;;1999.90;999.90;;;;;;;;;;4953091;28;20240;-76
2023/07/23 07:22:15;;;;;;;1999.90;999.90;;;;;;;;;;4960288;28;20276;-77
2023/07/23 07:25:00;;;;;;;1999.90;999.90;;;;;;;;;;4957113;28;20281;-77
2023/07/23 07:27:45;;;;;;;1999.90;999.90;;;;;;;;;;4955315;28;20216;-75
2023/07/23 07:30:30;;;;;;;1999.90;999.90;;;;;;;;;;4955226;28;20212;-75
2023/07/23 07:33:15;;;;;;;1999.90;999.90;;;;;;;;;;4953207;28;20244;-76
2023/07/23 07:36:02;;;;;;;1999.90;999.90;;;;;;;;;;4948828;28;20439;-75
2023/07/23 07:38:47;;;;;;;1999.90;999.90;;;;;;;;;;4954609;28;20311;-76
2023/07/23 07:41:32;;;;;;;1999.90;999.90;;;;;;;;;;4954228;28;20608;-77
2023/07/23 07:44:17;;;;;;;1999.90;999.90;;;;;;;;;;4952987;28;20713;-75
2023/07/23 07:47:02;;;;;;;1999.90;999.90;;;;;;;;;;4952572;28;20348;-75
2023/07/23 07:49:47;;;;;;;1999.90;999.90;;;;;;;;;;4953717;28;20216;-78
2023/07/23 07:52:33;;;;;;;1999.90;999.90;;;;;;;;;;4953758;28;20625;-76
2023/07/23 07:55:18;;;;;;;1999.90;999.90;;;;;;;;;;4962090;28;20234;-78
2023/07/23 07:58:04;;;;;;;1999.90;999.90;;;;;;;;;;4962694;28;20458;-78
2023/07/23 08:00:50;;;;;;;1999.90;999.90;;;;;;;;;;4965054;28;20239;-77
2023/07/23 08:03:35;;;;;;;1999.90;999.90;;;;;;;;;;4960179;28;20321;-77
2023/07/23 08:06:22;;;;;;;1999.90;999.90;;;;;;;;;;4956432;28;20224;-77
2023/07/23 08:09:09;;;;;;;1999.90;999.90;;;;;;;;;;4956016;28;20285;-78
2023/07/23 08:11:54;;;;;;;1999.90;999.90;;;;;;;;;;4962329;28;20272;-78
2023/07/23 08:14:39;;;;;;;1999.90;999.90;;;;;;;;;;4961727;28;20723;-77
2023/07/23 08:17:25;;;;;;;1999.90;999.90;;;;;;;;;;4955572;28;20215;-76
2023/07/23 08:20:10;;;;;;;1999.90;999.90;;;;;;;;;;4961061;28;20244;-78
2023/07/23 08:22:56;;;;;;;1999.90;999.90;;;;;;;;;;4961491;28;20236;-77
2023/07/23 08:25:44;;;;;;;1999.90;999.90;;;;;;;;;;4959432;28;20216;-77
2023/07/23 08:28:29;;;;;;;1999.90;999.90;;;;;;;;;;4965721;28;20224;-78
2023/07/23 08:31:15;;;;;;;1999.90;999.90;;;;;;;;;;4954231;28;20776;-77
2023/07/23 08:34:02;;;;;;;1999.90;999.90;;;;;;;;;;4953115;28;20264;-78
2023/07/23 08:36:48;;;;;;;1999.90;999.90;;;;;;;;;;4960586;28;20208;-75
2023/07/23 08:39:33;;;;;;;1999.90;999.90;;;;;;;;;;4957616;28;20597;-78
2023/07/23 08:42:49;;;;;;;1999.90;999.90;;;;;;;;;;4940272;29;20593;-76
2023/07/23 08:45:58;;;;;;;1999.90;999.90;;;;;;;;;;4951137;28;20208;-75
2023/07/23 08:49:01;;;;;;;1999.90;999.90;;;;;;;;;;4947654;28;20345;-78
2023/07/23 08:51:47;;;;;;;1999.90;999.90;;;;;;;;;;4949502;28;20241;-75
2023/07/23 08:54:32;;;;;;;1999.90;999.90;;;;;;;;;;4961183;28;20204;-79
2023/07/23 08:57:18;;;;;;;1999.90;999.90;;;;;;;;;;4957505;28;20218;-78
2023/07/23 09:00:06;;;;;;;1999.90;999.90;;;;;;;;;;4953762;28;20244;-76
2023/07/23 09:02:51;;;;;;;1999.90;999.90;;;;;;;;;;4954613;28;20235;-77
2023/07/23 09:05:36;;;;;;;1999.90;999.90;;;;;;;;;;4957738;28;20213;-76
2023/07/23 09:08:21;;;;;;;1999.90;999.90;;;;;;;;;;4956996;28;20765;-77
2023/07/23 09:11:09;;;;;;;1999.90;999.90;;;;;;;;;;4954366;28;20354;-77
2023/07/23 09:13:57;;;;;;;1999.90;999.90;;;;;;;;;;4960260;28;20209;-77
2023/07/23 09:16:44;;;;;;;1999.90;999.90;;;;;;;;;;4957134;28;20892;-77
2023/07/23 09:19:29;;;;;;;1999.90;999.90;;;;;;;;;;4954416;28;20292;-77
2023/07/23 09:22:16;;;;;;;1999.90;999.90;;;;;;;;;;4960566;28;20320;-77
2023/07/23 09:25:01;;;;;;;1999.90;999.90;;;;;;;;;;4955401;28;20347;-76
2023/07/23 09:27:46;;;;;;;1999.90;999.90;;;;;;;;;;4959258;28;20296;-76
2023/07/23 09:30:31;;;;;;;1999.90;999.90;;;;;;;;;;4961830;28;20203;-75
2023/07/23 09:33:17;;;;;;;1999.90;999.90;;;;;;;;;;4954200;28;20209;-75
2023/07/23 09:36:03;;;;;;;1999.90;999.90;;;;;;;;;;4951783;28;20710;-76
2023/07/23 09:38:53;;;;;;;1999.90;999.90;;;;;;;;;;4956946;28;20225;-75
2023/07/23 09:41:38;;;;;;;1999.90;999.90;;;;;;;;;;4947718;28;20233;-79
2023/07/23 09:44:24;;;;;;;1999.90;999.90;;;;;;;;;;4955751;28;20204;-78
2023/07/23 09:47:10;;;;;;;1999.90;999.90;;;;;;;;;;4952212;28;20212;-77
2023/07/23 09:49:56;;;;;;;1999.90;999.90;;;;;;;;;;4946504;28;20440;-76
2023/07/23 09:52:41;;;;;;;1999.90;999.90;;;;;;;;;;4960067;28;20233;-76
2023/07/23 09:55:26;;;;;;;1999.90;999.90;;;;;;;;;;4952372;28;20201;-79
2023/07/23 09:58:11;;;;;;;1999.90;999.90;;;;;;;;;;4949718;28;20264;-77
2023/07/23 10:00:57;;;;;;;1999.90;999.90;;;;;;;;;;4951659;28;20772;-77
2023/07/23 10:03:43;;;;;;;1999.90;999.90;;;;;;;;;;4950113;28;20271;-76
2023/07/23 10:06:29;;;;;;;1999.90;999.90;;;;;;;;;;4950579;28;20209;-79
2023/07/23 10:09:16;;;;;;;1999.90;999.90;;;;;;;;;;4952106;28;20217;-76
2023/07/23 10:12:00;;;;;;;1999.90;999.90;;;;;;;;;;4959636;28;20733;-76
2023/07/23 10:14:45;;;;;;;1999.90;999.90;;;;;;;;;;4957199;28;20215;-77
2023/07/23 10:17:31;;;;;;;1999.90;999.90;;;;;;;;;;4950633;28;20348;-77
2023/07/23 10:20:17;;;;;;;1999.90;999.90;;;;;;;;;;4955465;28;20280;-76
2023/07/23 10:23:05;;;;;;;1999.90;999.90;;;;;;;;;;4956295;28;20226;-78
2023/07/23 10:26:10;;;;;;;1999.90;999.90;;;;;;;;;;4956211;28;20712;-77
2023/07/23 10:28:59;;;;;;;1999.90;999.90;;;;;;;;;;4946992;28;20504;-77
2023/07/23 10:31:44;;;;;;;1999.90;999.90;;;;;;;;;;4955111;28;20249;-77
2023/07/23 10:34:42;;;;;;;1999.90;999.90;;;;;;;;;;4949293;28;20348;-77
2023/07/23 10:37:28;;;;;;;1999.90;999.90;;;;;;;;;;4954988;28;20910;-77
2023/07/23 10:40:34;;;;;;;1999.90;999.90;;;;;;;;;;4954919;28;20333;-76
2023/07/23 10:43:19;;;;;;;1999.90;999.90;;;;;;;;;;4956117;28;20322;-76
2023/07/23 10:46:05;;;;;;;1999.90;999.90;;;;;;;;;;4954930;28;20224;-75
2023/07/23 10:48:50;;;;;;;1999.90;999.90;;;;;;;;;;4954145;28;20406;-78
2023/07/23 10:51:41;;;;;;;1999.90;999.90;;;;;;;;;;4957985;28;20220;-76
2023/07/23 10:54:27;;;;;;;1999.90;999.90;;;;;;;;;;4953524;28;20220;-74
2023/07/23 10:57:24;;;;;;;1999.90;999.90;;;;;;;;;;4957225;28;20290;-75
2023/07/23 11:00:19;;;;;;;1999.90;999.90;;;;;;;;;;4955651;28;20815;-75
2023/07/23 11:03:04;;;;;;;1999.90;999.90;;;;;;;;;;4952411;28;20211;-76
2023/07/23 11:05:50;;;;;;;1999.90;999.90;;;;;;;;;;4954511;28;20781;-78
2023/07/23 11:08:48;;;;;;;1999.90;999.90;;;;;;;;;;4958663;28;20700;-76
2023/07/23 11:11:35;;;;;;;1999.90;999.90;;;;;;;;;;4955933;28;20270;-73
2023/07/23 11:14:22;;;;;;;1999.90;999.90;;;;;;;;;;4956549;28;20205;-74
2023/07/23 11:17:08;;;;;;;1999.90;999.90;;;;;;;;;;4951764;28;20346;-76
2023/07/23 11:19:53;;;;;;;1999.90;999.90;;;;;;;;;;4954910;28;20582;-75
2023/07/23 11:22:42;;;;;;;1999.90;999.90;;;;;;;;;;4944557;29;20248;-74
2023/07/23 11:25:27;;;;;;;1999.90;999.90;;;;;;;;;;4953787;28;20208;-75
2023/07/23 11:28:12;;;;;;;1999.90;999.90;;;;;;;;;;4954415;29;20212;-76
2023/07/23 11:30:58;;;;;;;1999.90;999.90;;;;;;;;;;4958044;28;20233;-76
2023/07/23 11:33:43;;;;;;;1999.90;999.90;;;;;;;;;;4957706;28;20233;-76
2023/07/23 11:36:28;;;;;;;1999.90;999.90;;;;;;;;;;4953008;29;20216;-76
2023/07/23 11:39:13;;;;;;;1999.90;999.90;;;;;;;;;;4952072;28;20492;-72
2023/07/23 11:41:58;;;;;;;1999.90;999.90;;;;;;;;;;4952853;28;20714;-72
2023/07/23 11:44:59;;;;;;;1999.90;999.90;;;;;;;;;;4959661;28;20282;-73
2023/07/23 11:47:49;;;;;;;1999.90;999.90;;;;;;;;;;4953286;28;20621;-74
2023/07/23 11:50:34;;;;;;;1999.90;999.90;;;;;;;;;;4948061;28;20703;-73
2023/07/23 11:53:35;;;;;;;1999.90;999.90;;;;;;;;;;4951568;28;20219;-73
2023/07/23 11:56:23;;;;;;;1999.90;999.90;;;;;;;;;;4953648;28;20221;-75
2023/07/23 11:59:09;;;;;;;1999.90;999.90;;;;;;;;;;4954259;29;20280;-74
2023/07/23 12:01:55;;;;;;;1999.90;999.90;;;;;;;;;;4950994;28;20282;-75
2023/07/23 12:04:43;;;;;;;1999.90;999.90;;;;;;;;;;4953596;29;20313;-75
2023/07/23 12:07:29;;;;;;;1999.90;999.90;;;;;;;;;;4947999;28;20223;-72
2023/07/23 12:10:15;;;;;;;1999.90;999.90;;;;;;;;;;4952308;28;20699;-73
2023/07/23 12:13:07;;;;;;;1999.90;999.90;;;;;;;;;;4948964;28;20440;-75
2023/07/23 12:15:54;;;;;;;1999.90;999.90;;;;;;;;;;4954099;28;20212;-73
2023/07/23 12:18:43;;;;;;;1999.90;999.90;;;;;;;;;;4952885;29;20301;-73
2023/07/23 12:21:30;;;;;;;1999.90;999.90;;;;;;;;;;4952338;28;20228;-74
2023/07/23 12:24:16;;;;;;;1999.90;999.90;;;;;;;;;;4956517;28;20950;-73
2023/07/23 12:27:03;;;;;;;1999.90;999.90;;;;;;;;;;4952708;28;20257;-74
2023/07/23 12:29:48;;;;;;;1999.90;999.90;;;;;;;;;;4944857;28;20214;-74
2023/07/23 12:32:34;;;;;;;1999.90;999.90;;;;;;;;;;4950555;28;20235;-74
2023/07/23 12:35:20;;;;;;;1999.90;999.90;;;;;;;;;;4950791;28;20627;-73
2023/07/23 12:38:06;;;;;;;1999.90;999.90;;;;;;;;;;4953918;28;20347;-74
2023/07/23 12:40:51;;;;;;;1999.90;999.90;;;;;;;;;;4957411;28;20246;-72
2023/07/23 12:43:38;;;;;;;1999.90;999.90;;;;;;;;;;4953354;28;20345;-75
2023/07/23 12:46:23;;;;;;;1999.90;999.90;;;;;;;;;;4952817;28;20303;-75
2023/07/23 12:49:08;;;;;;;1999.90;999.90;;;;;;;;;;4954053;28;20934;-73
2023/07/23 12:51:53;;;;;;;1999.90;999.90;;;;;;;;;;4952516;28;20239;-73
2023/07/23 12:54:40;;;;;;;1999.90;999.90;;;;;;;;;;4950443;28;20260;-73
2023/07/23 12:57:25;;;;;;;1999.90;999.90;;;;;;;;;;4950078;28;20216;-71
2023/07/23 13:00:10;;;;;;;1999.90;999.90;;;;;;;;;;4949705;28;20252;-72
2023/07/23 13:02:55;;;;;;;1999.90;999.90;;;;;;;;;;4953230;29;20586;-70
2023/07/23 13:05:40;;;;;;;1999.90;999.90;;;;;;;;;;4945556;28;20212;-71
2023/07/23 13:08:25;;;;;;;1999.90;999.90;;;;;;;;;;4959884;28;20208;-71
2023/07/23 13:11:12;;;;;;;1999.90;999.90;;;;;;;;;;4957277;28;20432;-72
2023/07/23 13:13:57;;;;;;;1999.90;999.90;;;;;;;;;;4961984;28;20208;-71
2023/07/23 13:16:41;;;;;;;1999.90;999.90;;;;;;;;;;4951476;28;20732;-72
2023/07/23 13:19:26;;;;;;;1999.90;999.90;;;;;;;;;;4945044;28;20316;-73
2023/07/23 13:22:11;;;;;;;1999.90;999.90;;;;;;;;;;4950132;28;20808;-73
2023/07/23 13:24:56;;;;;;;1999.90;999.90;;;;;;;;;;4951973;28;20215;-72
2023/07/23 13:27:42;;;;;;;1999.90;999.90;;;;;;;;;;4962224;28;20272;-72
2023/07/23 13:30:27;;;;;;;1999.90;999.90;;;;;;;;;;4950010;28;20205;-74
2023/07/23 13:33:12;;;;;;;1999.90;999.90;;;;;;;;;;4952668;29;20506;-75
2023/07/23 13:35:58;;;;;;;1999.90;999.90;;;;;;;;;;4948150;28;20284;-73
2023/07/23 13:38:42;;;;;;;1999.90;999.90;;;;;;;;;;4954691;28;20721;-74
2023/07/23 13:41:27;;;;;;;1999.90;999.90;;;;;;;;;;4948769;28;20253;-73
2023/07/23 13:44:13;;;;;;;1999.90;999.90;;;;;;;;;;4953046;28;20236;-73
2023/07/23 13:46:58;;;;;;;1999.90;999.90;;;;;;;;;;4951879;28;20583;-73
2023/07/23 13:49:43;;;;;;;1999.90;999.90;;;;;;;;;;4944687;28;20216;-73
2023/07/23 13:52:28;;;;;;;1999.90;999.90;;;;;;;;;;4954830;28;20232;-74
2023/07/23 13:55:13;;;;;;;1999.90;999.90;;;;;;;;;;4951273;28;20220;-73
2023/07/23 13:57:58;;;;;;;1999.90;999.90;;;;;;;;;;4947835;28;20229;-73
2023/07/23 14:00:46;;;;;;;1999.90;999.90;;;;;;;;;;4950567;28;20738;-73
2023/07/23 14:03:31;;;;;;;1999.90;999.90;;;;;;;;;;4959147;28;20714;-72
2023/07/23 14:06:16;;;;;;;1999.90;999.90;;;;;;;;;;4951289;28;20220;-72
2023/07/23 14:09:01;;;;;;;1999.90;999.90;;;;;;;;;;4950967;28;20280;-72
2023/07/23 14:11:47;;;;;;;1999.90;999.90;;;;;;;;;;4953529;28;20276;-73
2023/07/23 14:14:31;;;;;;;1999.90;999.90;;;;;;;;;;4952425;29;20208;-73
2023/07/23 14:17:18;;;;;;;1999.90;999.90;;;;;;;;;;4959518;28;20271;-72
2023/07/23 14:20:04;;;;;;;1999.90;999.90;;;;;;;;;;4952702;28;20274;-72
2023/07/23 14:22:49;;;;;;;1999.90;999.90;;;;;;;;;;4957943;28;20304;-73
2023/07/23 14:25:34;;;;;;;1999.90;999.90;;;;;;;;;;4950284;28;20289;-73
2023/07/23 14:28:19;;;;;;;1999.90;999.90;;;;;;;;;;4955502;28;20229;-74
2023/07/23 14:31:05;;;;;;;1999.90;999.90;;;;;;;;;;4946253;28;20237;-74
2023/07/23 14:33:51;;;;;;;1999.90;999.90;;;;;;;;;;4951580;28;20696;-73
2023/07/23 14:36:36;;;;;;;1999.90;999.90;;;;;;;;;;4951964;28;20317;-74
2023/07/23 14:39:21;;;;;;;1999.90;999.90;;;;;;;;;;4953192;28;20217;-74
2023/07/23 14:42:06;;;;;;;1999.90;999.90;;;;;;;;;;4952777;28;20256;-74
2023/07/23 14:44:53;;;;;;;1999.90;999.90;;;;;;;;;;4955511;28;20674;-74
2023/07/23 14:47:38;;;;;;;1999.90;999.90;;;;;;;;;;4952198;28;20214;-74
2023/07/23 14:50:24;;;;;;;1999.90;999.90;;;;;;;;;;4950173;28;20217;-74
2023/07/23 14:53:10;;;;;;;1999.90;999.90;;;;;;;;;;4955099;28;20236;-74
2023/07/23 14:55:55;;;;;;;1999.90;999.90;;;;;;;;;;4952740;28;20213;-73
2023/07/23 14:58:40;;;;;;;1999.90;999.90;;;;;;;;;;4951342;29;20261;-73
2023/07/23 15:01:25;;;;;;;1999.90;999.90;;;;;;;;;;4962535;28;20240;-74
2023/07/23 15:04:10;;;;;;;1999.90;999.90;;;;;;;;;;4953304;28;20284;-74
2023/07/23 15:06:56;;;;;;;1999.90;999.90;;;;;;;;;;4957432;28;20208;-73
2023/07/23 15:09:41;;;;;;;1999.90;999.90;;;;;;;;;;4953083;28;20839;-74
2023/07/23 15:12:27;;;;;;;1999.90;999.90;;;;;;;;;;4952961;28;20230;-74
2023/07/23 15:15:13;;;;;;;1999.90;999.90;;;;;;;;;;4951638;28;20213;-74
2023/07/23 15:17:58;;;;;;;1999.90;999.90;;;;;;;;;;4956322;29;20336;-74
2023/07/23 15:20:43;;;;;;;1999.90;999.90;;;;;;;;;;4956522;28;20236;-72
2023/07/23 15:23:30;;;;;;;1999.90;999.90;;;;;;;;;;4954774;28;20571;-71
2023/07/23 15:26:16;;;;;;;1999.90;999.90;;;;;;;;;;4960776;28;20226;-73
2023/07/23 15:29:02;;;;;;;1999.90;999.90;;;;;;;;;;4954009;28;20223;-71
2023/07/23 15:31:47;;;;;;;1999.90;999.90;;;;;;;;;;4958066;28;20439;-73
2023/07/23 15:34:35;;;;;;;1999.90;999.90;;;;;;;;;;4958435;28;20332;-74
2023/07/23 15:37:21;;;;;;;1999.90;999.90;;;;;;;;;;4962079;28;20337;-73
2023/07/23 15:40:08;;;;;;;1999.90;999.90;;;;;;;;;;4962041;28;20212;-76
2023/07/23 15:42:53;;;;;;;1999.90;999.90;;;;;;;;;;4955556;28;20225;-75
2023/07/23 15:45:39;;;;;;;1999.90;999.90;;;;;;;;;;4968207;28;20287;-75
2023/07/23 15:48:24;;;;;;;1999.90;999.90;;;;;;;;;;4955373;28;20700;-74
2023/07/23 15:51:09;;;;;;;1999.90;999.90;;;;;;;;;;4960207;28;20599;-74
2023/07/23 15:53:54;;;;;;;1999.90;999.90;;;;;;;;;;4961445;28;20700;-74
2023/07/23 15:56:41;;;;;;;1999.90;999.90;;;;;;;;;;4965318;28;20252;-75
2023/07/23 15:59:25;;;;;;;1999.90;999.90;;;;;;;;;;4956175;28;20214;-77
2023/07/23 16:02:10;;;;;;;1999.90;999.90;;;;;;;;;;4957856;28;20289;-75
2023/07/23 16:04:55;;;;;;;1999.90;999.90;;;;;;;;;;4954378;28;20270;-75
2023/07/23 16:07:40;;;;;;;1999.90;999.90;;;;;;;;;;4956830;28;20529;-75
2023/07/23 16:10:25;;;;;;;1999.90;999.90;;;;;;;;;;4960091;28;20585;-73
2023/07/23 16:13:12;;;;;;;1999.90;999.90;;;;;;;;;;4956107;28;20210;-75
2023/07/23 16:15:57;;;;;;;1999.90;999.90;;;;;;;;;;4960193;28;20236;-74
2023/07/23 16:18:42;;;;;;;1999.90;999.90;;;;;;;;;;4956421;28;20225;-75
2023/07/23 16:21:27;;;;;;;1999.90;999.90;;;;;;;;;;4953343;28;20331;-75
2023/07/23 16:24:12;;;;;;;1999.90;999.90;;;;;;;;;;4959034;28;20314;-74
2023/07/23 16:26:57;;;;;;;1999.90;999.90;;;;;;;;;;4953947;28;20580;-73
2023/07/23 16:29:44;;;;;;;1999.90;999.90;;;;;;;;;;4953029;28;20434;-75
2023/07/23 16:32:30;;;;;;;1999.90;999.90;;;;;;;;;;4952536;28;20308;-73
2023/07/23 16:35:16;;;;;;;1999.90;999.90;;;;;;;;;;4952998;28;20230;-75
2023/07/23 16:38:02;;;;;;;1999.90;999.90;;;;;;;;;;4954688;28;20235;-75
2023/07/23 16:40:47;;;;;;;1999.90;999.90;;;;;;;;;;4951307;28;20754;-76
2023/07/23 16:43:35;;;;;;;1999.90;999.90;;;;;;;;;;4948202;28;20811;-77
2023/07/23 16:46:23;;;;;;;1999.90;999.90;;;;;;;;;;4951734;28;20213;-76
2023/07/23 16:49:08;;;;;;;1999.90;999.90;;;;;;;;;;4961770;28;20208;-77
2023/07/23 16:51:53;;;;;;;1999.90;999.90;;;;;;;;;;4953585;28;20232;-75
2023/07/23 16:54:38;;;;;;;1999.90;999.90;;;;;;;;;;4953156;28;20232;-78
2023/07/23 16:57:23;;;;;;;1999.90;999.90;;;;;;;;;;4955144;28;20212;-79
2023/07/23 17:00:08;;;;;;;1999.90;999.90;;;;;;;;;;4954910;28;22205;-76
2023/07/23 17:02:55;;;;;;;1999.90;999.90;;;;;;;;;;4954489;28;20236;-75
2023/07/23 17:05:40;;;;;;;1999.90;999.90;;;;;;;;;;4952215;28;20561;-75
2023/07/23 17:08:25;;;;;;;1999.90;999.90;;;;;;;;;;4953007;28;20216;-76
2023/07/23 17:11:13;;;;;;;1999.90;999.90;;;;;;;;;;4947045;28;20228;-76
2023/07/23 17:14:00;;;;;;;1999.90;999.90;;;;;;;;;;4957325;28;20639;-75
2023/07/23 17:16:45;;;;;;;1999.90;999.90;;;;;;;;;;4950543;28;20209;-75
2023/07/23 17:19:32;;;;;;;1999.90;999.90;;;;;;;;;;4951746;28;20709;-76
2023/07/23 17:22:17;;;;;;;1999.90;999.90;;;;;;;;;;4949987;28;20911;-76
2023/07/23 17:25:02;;;;;;;1999.90;999.90;;;;;;;;;;4950954;28;20241;-76
2023/07/23 17:27:47;;;;;;;1999.90;999.90;;;;;;;;;;4951211;28;20794;-76
2023/07/23 17:30:31;;;;;;;1999.90;999.90;;;;;;;;;;4952998;28;20251;-76
2023/07/23 17:33:16;;;;;;;1999.90;999.90;;;;;;;;;;4947231;28;20572;-76
2023/07/23 17:36:02;;;;;;;1999.90;999.90;;;;;;;;;;4953650;28;20232;-77
2023/07/23 17:38:48;;;;;;;1999.90;999.90;;;;;;;;;;4952094;29;20302;-74
2023/07/23 17:41:32;;;;;;;1999.90;999.90;;;;;;;;;;4951602;28;20224;-77
2023/07/23 17:44:17;;;;;;;1999.90;999.90;;;;;;;;;;4955240;28;20211;-76
2023/07/23 17:47:03;;;;;;;1999.90;999.90;;;;;;;;;;4955537;28;20304;-76
2023/07/23 17:49:48;;;;;;;1999.90;999.90;;;;;;;;;;4953324;28;20220;-77
2023/07/23 17:52:34;;;;;;;1999.90;999.90;;;;;;;;;;4954922;28;20595;-78
2023/07/23 17:55:19;;;;;;;1999.90;999.90;;;;;;;;;;4951083;28;20209;-76
2023/07/23 17:58:06;;;;;;;1999.90;999.90;;;;;;;;;;4953178;28;21152;-75
2023/07/23 18:00:51;;;;;;;1999.90;999.90;;;;;;;;;;4949731;28;20275;-73
2023/07/23 18:03:37;;;;;;;1999.90;999.90;;;;;;;;;;4945332;28;20500;-75
2023/07/23 18:06:22;;;;;;;1999.90;999.90;;;;;;;;;;4947116;28;20296;-74
2023/07/23 18:09:08;;;;;;;1999.90;999.90;;;;;;;;;;4951820;28;20607;-72
2023/07/23 18:11:53;;;;;;;1999.90;999.90;;;;;;;;;;4949984;28;20339;-73
2023/07/23 18:14:38;;;;;;;1999.90;999.90;;;;;;;;;;4956914;28;20220;-73
2023/07/23 18:17:23;;;;;;;1999.90;999.90;;;;;;;;;;4967330;28;20360;-73
2023/07/23 18:20:08;;;;;;;1999.90;999.90;;;;;;;;;;4953562;28;20251;-74
2023/07/23 18:22:53;;;;;;;1999.90;999.90;;;;;;;;;;4958270;28;20240;-74
2023/07/23 18:25:43;;;;;;;1999.90;999.90;;;;;;;;;;4961639;28;20839;-75
2023/07/23 18:28:27;;;;;;;1999.90;999.90;;;;;;;;;;4951835;28;20313;-74
2023/07/23 18:31:13;;;;;;;1999.90;999.90;;;;;;;;;;4952897;28;20592;-75
2023/07/23 18:34:00;;;;;;;1999.90;999.90;;;;;;;;;;4955164;28;20215;-75
2023/07/23 18:36:45;;;;;;;1999.90;999.90;;;;;;;;;;4951282;28;20220;-74
2023/07/23 18:39:30;;;;;;;1999.90;999.90;;;;;;;;;;4953154;28;20212;-75
2023/07/23 18:42:16;;;;;;;1999.90;999.90;;;;;;;;;;4949541;28;20349;-74
2023/07/23 18:45:02;;;;;;;1999.90;999.90;;;;;;;;;;4961846;28;20220;-75
2023/07/23 18:47:47;;;;;;;1999.90;999.90;;;;;;;;;;4953056;29;20212;-75
2023/07/23 18:50:33;;;;;;;1999.90;999.90;;;;;;;;;;4950032;28;20284;-75
2023/07/23 18:53:19;;;;;;;1999.90;999.90;;;;;;;;;;4955148;28;20631;-74
2023/07/23 18:56:04;;;;;;;1999.90;999.90;;;;;;;;;;4952245;28;20235;-75
2023/07/23 18:58:50;;;;;;;1999.90;999.90;;;;;;;;;;4961284;28;20216;-73
2023/07/23 19:01:35;;;;;;;1999.90;999.90;;;;;;;;;;4949457;28;21000;-74
2023/07/23 19:04:20;;;;;;;1999.90;999.90;;;;;;;;;;4949223;28;20588;-75
2023/07/23 19:07:05;;;;;;;1999.90;999.90;;;;;;;;;;4952076;28;20720;-74
2023/07/23 19:09:50;;;;;;;1999.90;999.90;;;;;;;;;;4956957;28;20222;-73
2023/07/23 19:12:35;;;;;;;1999.90;999.90;;;;;;;;;;4956081;28;20732;-74
2023/07/23 19:15:21;;;;;;;1999.90;999.90;;;;;;;;;;4948937;28;20697;-74
2023/07/23 19:18:06;;;;;;;1999.90;999.90;;;;;;;;;;4952840;28;20216;-74
2023/07/23 19:20:51;;;;;;;1999.90;999.90;;;;;;;;;;4952679;28;20958;-75
2023/07/23 19:23:36;;;;;;;1999.90;999.90;;;;;;;;;;4951012;28;20378;-74
2023/07/23 19:26:21;;;;;;;1999.90;999.90;;;;;;;;;;4954884;28;20208;-75